No particular awareness of the weather is required.    There are no Weather-warnings


Meteo18 Weather Cam more information Meteo18 Weather Cam


Thunder radar more information blitzortung!


Rain radar more information rain snow radar


Visit our other weather sites:

Template documentation
and downloads

And another site



Weather Underground History page Text

Daily Summary for March 22, 2017 Units:  English    Metric   Both
« Previous Day
Next Day »
Daily Weekly Monthly Yearly Custom
  High: Low: Average:
Temperature: 55 °F 32.9 °F 44.1 °F
Dew Point: 43.3 °F 31.8 °F 37.9 °F
Humidity: 97 % 55 % 81 %
Wind Speed: 11 mph 0 mph 2.1 mph
Wind Gust: 15 mph - -
Wind:- - SE
Pressure: 30 in 29.8 in -
Precipitation: 0.01 in    
Historical Graphs
 
 
Tabular Data for March 22, 2017
Time Temperature Dew Point Pressure Wind Wind Speed Wind Gust Humidity Rainfall Rate (Hourly)
00:02 38.3 °F 37 °F 30 in Calm   2 mph 95 % 0 in
00:12 38.1 °F 37 °F 30 in Calm     96 % 0 in
00:17 38.1 °F 37 °F 30 in SW 2 mph   96 % 0 in
00:22 38.3 °F 37.2 °F 30 in WSW 2 mph 3 mph 96 % 0 in
00:32 38.5 °F 37.4 °F 30 in SW 2 mph 3 mph 96 % 0 in
00:37 38.3 °F 37.2 °F 30 in WSW 1 mph 3 mph 96 % 0 in
00:42 38.3 °F 37.2 °F 30 in SW 1 mph 3 mph 96 % 0 in
00:47 38.1 °F 37 °F 30 in Calm   2 mph 96 % 0 in
00:52 37.9 °F 36.7 °F 30 in Calm   2 mph 95 % 0 in
00:57 37.8 °F 36.5 °F 30 in Calm   2 mph 95 % 0 in
01:02 37.6 °F 36.3 °F 30 in Calm   2 mph 95 % 0 in
01:07 37.4 °F 36.1 °F 30 in Calm     95 % 0 in
01:17 37 °F 36 °F 30 in Calm     96 % 0.01 in
01:22 37 °F 36 °F 30 in Calm     96 % 0.01 in
01:32 37 °F 36 °F 30 in Calm     96 % 0.01 in
01:42 36.7 °F 35.6 °F 30 in Calm   1 mph 96 % 0.01 in
01:52 36 °F 34.9 °F 30 in Calm   1 mph 96 % 0.01 in
01:57 36 °F 34.9 °F 30 in SE 1 mph 1 mph 96 % 0.01 in
02:02 36.1 °F 35.1 °F 30 in Calm   1 mph 96 % 0.01 in
02:07 36.1 °F 35.1 °F 30 in Calm   1 mph 96 % 0.01 in
02:12 36 °F 34.9 °F 30 in Calm   1 mph 96 % 0.01 in
02:17 35.8 °F 34.7 °F 30 in Calm     96 % 0 in
02:22 35.2 °F 34 °F 30 in Calm     95 % 0 in
02:27 35.1 °F 34 °F 30 in Calm     96 % 0 in
02:32 34.7 °F 33.6 °F 30 in Calm     96 % 0 in
02:37 34.5 °F 33.4 °F 30 in Calm     96 % 0 in
02:42 34.2 °F 33.1 °F 30 in Calm     96 % 0 in
02:47 34 °F 32.9 °F 30 in Calm     96 % 0 in
02:52 34 °F 32.9 °F 30 in Calm     96 % 0 in
02:57 33.6 °F 32.5 °F 30 in Calm     96 % 0 in
03:02 33.6 °F 32.5 °F 30 in Calm     96 % 0 in
03:12 34.3 °F 33.6 °F 30 in Calm     97 % 0 in
03:17 34.5 °F 33.8 °F 30 in Calm     97 % 0 in
03:22 34.7 °F 34 °F 30 in Calm     97 % 0 in
03:32 35.1 °F 34.3 °F 30 in Calm     97 % 0 in
03:37 34.9 °F 34.2 °F 30 in Calm     97 % 0 in
03:42 34.9 °F 34.2 °F 30 in Calm     97 % 0 in
03:47 34.5 °F 33.4 °F 30 in Calm     96 % 0 in
03:52 34.5 °F 33.8 °F 30 in Calm     97 % 0 in
03:57 34.5 °F 33.8 °F 30 in Calm     97 % 0 in
04:02 34.3 °F 33.6 °F 30 in Calm     97 % 0 in
04:07 33.6 °F 32.5 °F 30 in Calm   2 mph 96 % 0 in
04:12 33.4 °F 32.4 °F 29.9 in Calm   2 mph 96 % 0 in
04:17 34 °F 33.3 °F 29.9 in Calm   1 mph 97 % 0 in
04:22 34 °F 33.3 °F 30 in Calm   1 mph 97 % 0 in
04:32 33.8 °F 33.1 °F 30 in Calm     97 % 0 in
04:37 33.4 °F 32.4 °F 29.9 in Calm     96 % 0 in
04:42 33.6 °F 32.9 °F 29.9 in Calm     97 % 0 in
04:47 34 °F 33.3 °F 29.9 in Calm     97 % 0 in
04:52 34 °F 33.3 °F 29.9 in Calm     97 % 0 in
04:57 34 °F 33.3 °F 29.9 in Calm     97 % 0 in
05:02 34 °F 33.3 °F 29.9 in Calm     97 % 0 in
05:07 34 °F 33.3 °F 29.9 in Calm     97 % 0 in
05:12 33.4 °F 32.4 °F 29.9 in Calm     96 % 0 in
05:22 32.9 °F 31.8 °F 29.9 in Calm     96 % 0 in
05:32 33.3 °F 32.5 °F 29.9 in Calm     97 % 0 in
05:37 33.1 °F 32.4 °F 29.9 in Calm     97 % 0 in
05:42 33.1 °F 32.4 °F 29.9 in Calm     97 % 0 in
05:52 33.6 °F 32.9 °F 29.9 in Calm     97 % 0 in
06:02 33.8 °F 33.1 °F 29.9 in Calm     97 % 0 in
06:07 33.6 °F 32.9 °F 29.9 in Calm     97 % 0 in
06:12 33.3 °F 32.5 °F 29.9 in Calm     97 % 0 in
06:17 33.1 °F 32.4 °F 29.9 in Calm     97 % 0 in
06:22 33.3 °F 32.5 °F 29.9 in Calm     97 % 0 in
06:32 33.1 °F 32.4 °F 29.9 in Calm     97 % 0 in
06:37 33.3 °F 32.5 °F 29.9 in Calm     97 % 0 in
06:42 33.4 °F 32.7 °F 29.9 in Calm     97 % 0 in
06:47 33.6 °F 32.9 °F 29.9 in Calm     97 % 0 in
06:52 33.6 °F 32.9 °F 29.9 in Calm     97 % 0 in
06:57 33.8 °F 33.1 °F 29.9 in Calm     97 % 0 in
07:02 34 °F 33.3 °F 29.9 in Calm     97 % 0 in
07:12 34.3 °F 33.6 °F 29.9 in Calm     97 % 0 in
07:22 34.5 °F 33.8 °F 29.9 in Calm     97 % 0 in
07:32 34.7 °F 34 °F 29.9 in Calm     97 % 0 in
07:42 36 °F 35.2 °F 29.9 in Calm     97 % 0 in
07:47 36.1 °F 35.4 °F 29.9 in Calm     97 % 0 in
07:52 36.9 °F 36.1 °F 29.9 in SE 1 mph   97 % 0 in
07:57 37.2 °F 36.5 °F 29.9 in SSE 2 mph 2 mph 97 % 0 in
08:02 37.8 °F 37 °F 29.9 in Calm   2 mph 97 % 0 in
08:07 37.9 °F 37.2 °F 29.9 in East 1 mph 4 mph 97 % 0 in
08:12 38.7 °F 37.9 °F 29.9 in Calm   4 mph 97 % 0 in
08:17 38.7 °F 37.6 °F 29.9 in ESE 2 mph 2 mph 96 % 0 in
08:22 39 °F 37.9 °F 29.9 in Calm   2 mph 96 % 0 in
08:32 38.8 °F 37.6 °F 29.9 in SE 1 mph 4 mph 95 % 0 in
08:42 39 °F 37.8 °F 29.9 in SE 2 mph 3 mph 95 % 0 in
08:52 40.1 °F 38.8 °F 29.9 in Calm   5 mph 95 % 0 in
09:02 40.8 °F 39 °F 29.9 in SSE 2 mph 4 mph 93 % 0 in
09:07 41.4 °F 39.6 °F 29.9 in ESE 3 mph 4 mph 93 % 0 in
09:17 42.3 °F 40.1 °F 29.9 in SSE 3 mph 5 mph 92 % 0 in
09:22 42.3 °F 39.6 °F 29.9 in South 2 mph 5 mph 90 % 0 in
09:32 43 °F 39.9 °F 29.9 in East 6 mph 6 mph 89 % 0 in
09:37 43.2 °F 39.9 °F 29.9 in SE 2 mph 6 mph 88 % 0 in
09:42 43.5 °F 40.5 °F 29.9 in SE 2 mph 6 mph 89 % 0 in
09:47 43.9 °F 40.3 °F 29.9 in SE 2 mph 7 mph 87 % 0 in
09:52 44.8 °F 41.7 °F 29.9 in ESE 5 mph 7 mph 89 % 0 in
10:02 45 °F 41 °F 29.9 in SSE 1 mph 7 mph 86 % 0 in
10:07 45.1 °F 40.6 °F 29.9 in South 3 mph 8 mph 84 % 0 in
10:17 45.3 °F 40.8 °F 29.9 in Calm   8 mph 84 % 0 in
10:22 45.7 °F 41.7 °F 29.9 in SE 2 mph 8 mph 86 % 0 in
10:32 46.2 °F 41.9 °F 29.9 in SSE 3 mph 8 mph 85 % 0 in
10:42 46.6 °F 40.8 °F 29.9 in East 4 mph 9 mph 80 % 0 in
10:47 46.8 °F 41.5 °F 29.9 in SE 6 mph 9 mph 82 % 0 in
10:52 46.4 °F 40.8 °F 29.9 in SE 3 mph 9 mph 81 % 0 in
10:57 46.6 °F 42.1 °F 29.9 in South 1 mph 10 mph 84 % 0 in
11:02 47.1 °F 41.5 °F 29.9 in ESE 3 mph 10 mph 81 % 0 in
11:07 46.8 °F 41 °F 29.9 in SSE 3 mph 9 mph 80 % 0 in
11:12 46.8 °F 41 °F 29.9 in SSE 2 mph 9 mph 80 % 0 in
11:17 47.1 °F 41.4 °F 29.9 in SSW 4 mph 11 mph 80 % 0 in
11:22 47.7 °F 42.1 °F 29.9 in SSE 5 mph 11 mph 81 % 0 in
11:32 47.7 °F 41.7 °F 29.9 in SSE 3 mph 10 mph 80 % 0 in
11:42 48 °F 42.4 °F 29.9 in SE 3 mph 9 mph 81 % 0 in
11:52 47.1 °F 41.5 °F 29.9 in SE 2 mph 10 mph 81 % 0 in
12:02 48 °F 43.2 °F 29.9 in South 2 mph 14 mph 83 % 0 in
12:07 48.6 °F 43.3 °F 29.9 in SE 4 mph 12 mph 82 % 0 in
12:12 49.1 °F 42.6 °F 29.9 in SSE 2 mph 12 mph 78 % 0 in
12:17 48.9 °F 42.1 °F 29.9 in SW 1 mph 8 mph 77 % 0 in
12:22 49.5 °F 42.8 °F 29.9 in ESE 3 mph 12 mph 78 % 0 in
12:27 50 °F 43.2 °F 29.9 in SE 5 mph 12 mph 77 % 0 in
12:32 49.8 °F 42.3 °F 29.9 in East 4 mph 12 mph 75 % 0 in
12:37 49.6 °F 42.1 °F 29.9 in ESE 4 mph 12 mph 75 % 0 in
12:42 49.6 °F 41.7 °F 29.9 in SE 2 mph 11 mph 74 % 0 in
12:47 49.8 °F 41.9 °F 29.9 in SE 1 mph 11 mph 74 % 0 in
12:52 49.8 °F 41.5 °F 29.9 in East 3 mph 11 mph 73 % 0 in
12:57 49.6 °F 40.3 °F 29.9 in East 3 mph 12 mph 70 % 0 in
13:02 50.2 °F 40.8 °F 29.9 in SSE 4 mph 12 mph 70 % 0 in
13:12 51.3 °F 41 °F 29.9 in Calm   12 mph 68 % 0 in
13:17 51.4 °F 40.5 °F 29.9 in SE 5 mph 11 mph 66 % 0 in
13:22 51.6 °F 40.3 °F 29.9 in SSE 4 mph 11 mph 65 % 0 in
13:27 52.9 °F 42.6 °F 29.8 in SSE 3 mph 11 mph 68 % 0 in
13:37 52.5 °F 40.3 °F 29.8 in SSE 6 mph 13 mph 63 % 0 in
13:42 52.9 °F 40.6 °F 29.8 in South 8 mph 13 mph 63 % 0 in
13:52 52.9 °F 38.1 °F 29.8 in SSE 4 mph 15 mph 57 % 0 in
13:57 53.1 °F 39.9 °F 29.8 in SSE 6 mph 15 mph 61 % 0 in
14:02 53.2 °F 38.8 °F 29.8 in ESE 6 mph 15 mph 58 % 0 in
14:07 53.4 °F 39.4 °F 29.8 in SSW 4 mph 13 mph 59 % 0 in
14:12 53.8 °F 39.4 °F 29.8 in SSE 9 mph 13 mph 58 % 0 in
14:17 54 °F 38.1 °F 29.8 in SW 9 mph 10 mph 55 % 0 in
14:22 53.2 °F 37.4 °F 29.8 in SE 5 mph 10 mph 55 % 0 in
14:32 53.4 °F 37.6 °F 29.8 in SSE 5 mph 11 mph 55 % 0 in
14:37 53.8 °F 39.7 °F 29.8 in South 2 mph 10 mph 59 % 0 in
14:42 54.3 °F 39.4 °F 29.8 in SSW 8 mph 10 mph 57 % 0 in
14:52 53.4 °F 38.1 °F 29.8 in SE 2 mph 11 mph 56 % 0 in
14:57 54.1 °F 39.7 °F 29.8 in SSW 3 mph 10 mph 58 % 0 in
15:02 54 °F 38.1 °F 29.8 in ESE 3 mph 10 mph 55 % 0 in
15:12 54.5 °F 40.1 °F 29.8 in SSE 5 mph 10 mph 58 % 0 in
15:17 54.9 °F 39.9 °F 29.8 in SSE 6 mph 10 mph 57 % 0 in
15:22 54.5 °F 38.7 °F 29.8 in SE 6 mph 10 mph 55 % 0 in
15:32 54.1 °F 40.1 °F 29.8 in SSE 2 mph 10 mph 59 % 0 in
15:42 54.7 °F 41 °F 29.8 in SSW 5 mph 11 mph 60 % 0 in
15:47 55 °F 40.5 °F 29.8 in East 2 mph 9 mph 58 % 0 in
15:52 55 °F 40.5 °F 29.8 in SE 7 mph 9 mph 58 % 0 in
16:02 54 °F 38.7 °F 29.8 in ESE 6 mph 8 mph 56 % 0 in
16:12 54.3 °F 39.9 °F 29.8 in South 2 mph 8 mph 58 % 0 in
16:17 54.7 °F 40.6 °F 29.8 in ESE 4 mph 9 mph 59 % 0 in
16:22 54.1 °F 41 °F 29.8 in SE 7 mph 9 mph 61 % 0 in
16:32 54 °F 42.1 °F 29.8 in SE 4 mph 13 mph 64 % 0 in
16:42 53.6 °F 42.1 °F 29.8 in East 5 mph 12 mph 65 % 0 in
16:47 53.4 °F 41.5 °F 29.8 in SE 4 mph 10 mph 64 % 0 in
16:52 53.2 °F 41.7 °F 29.8 in ESE 3 mph 10 mph 65 % 0 in
16:57 53.1 °F 40.8 °F 29.8 in ESE 8 mph 11 mph 63 % 0 in
17:02 53.1 °F 40.8 °F 29.8 in East 8 mph 11 mph 63 % 0 in
17:12 53.2 °F 41 °F 29.8 in East 3 mph 11 mph 63 % 0 in
17:17 53.1 °F 40.8 °F 29.8 in East 9 mph 10 mph 63 % 0 in
17:22 53.1 °F 41.5 °F 29.8 in SE 7 mph 10 mph 65 % 0 in
17:27 53.6 °F 41.4 °F 29.8 in East 4 mph 10 mph 63 % 0 in
17:32 54 °F 42.1 °F 29.8 in ESE 4 mph 10 mph 64 % 0 in
17:42 53.4 °F 40.6 °F 29.8 in East 11 mph 11 mph 62 % 0 in
17:47 53.2 °F 40.6 °F 29.8 in ESE 10 mph 13 mph 62 % 0 in
17:52 53.2 °F 40.6 °F 29.8 in ESE 3 mph 13 mph 62 % 0 in
17:57 53.1 °F 40.5 °F 29.8 in SSE 4 mph 13 mph 62 % 0 in
18:02 52.7 °F 40.5 °F 29.8 in East 11 mph 13 mph 63 % 0 in
18:12 52.2 °F 40.3 °F 29.8 in East 4 mph 11 mph 64 % 0 in
18:17 51.8 °F 40.8 °F 29.8 in NE 3 mph 11 mph 66 % 0 in
18:22 51.6 °F 40.6 °F 29.8 in ESE 2 mph 6 mph 66 % 0 in
18:27 51.4 °F 40.5 °F 29.8 in East 3 mph 6 mph 66 % 0 in
18:32 51.6 °F 40.6 °F 29.8 in East 4 mph 6 mph 66 % 0 in
18:37 51.6 °F 40.3 °F 29.8 in ENE 4 mph 6 mph 65 % 0 in
18:42 51.4 °F 40.1 °F 29.8 in ESE 4 mph 6 mph 65 % 0 in
18:52 51.4 °F 39.2 °F 29.8 in East 5 mph 8 mph 63 % 0 in
18:57 51.3 °F 39.6 °F 29.8 in East 6 mph 9 mph 64 % 0 in
19:02 51.1 °F 39.4 °F 29.8 in East 6 mph 9 mph 64 % 0 in
19:12 50.5 °F 38.8 °F 29.8 in East 5 mph 9 mph 64 % 0 in
19:17 50.5 °F 38.8 °F 29.8 in East 3 mph 8 mph 64 % 0 in
19:22 50.4 °F 38.3 °F 29.8 in East 2 mph 8 mph 63 % 0 in
19:27 50 °F 38.7 °F 29.8 in ESE 1 mph 7 mph 65 % 0 in
19:32 49.5 °F 39 °F 29.8 in East 1 mph 7 mph 67 % 0 in
19:37 49.1 °F 38.7 °F 29.8 in ESE 1 mph 3 mph 67 % 0 in
19:42 48.9 °F 38.5 °F 29.8 in East 2 mph 3 mph 67 % 0 in
19:52 48.7 °F 37.9 °F 29.8 in East 1 mph 3 mph 66 % 0 in
19:57 48.7 °F 37.9 °F 29.8 in East 2 mph 3 mph 66 % 0 in
20:02 48.7 °F 37.9 °F 29.8 in East 2 mph 3 mph 66 % 0 in
20:07 48.6 °F 37.8 °F 29.8 in East 1 mph 3 mph 66 % 0 in
20:12 48.4 °F 37.6 °F 29.8 in Calm   3 mph 66 % 0 in
20:17 48 °F 37.6 °F 29.8 in Calm   3 mph 67 % 0 in
20:22 47.7 °F 37.6 °F 29.8 in Calm   3 mph 68 % 0 in
20:32 46.6 °F 37.8 °F 29.8 in Calm   2 mph 71 % 0 in
20:37 46.2 °F 37.8 °F 29.8 in Calm     72 % 0 in
20:42 46.6 °F 38.1 °F 29.8 in Calm     72 % 0 in
20:47 46.6 °F 37.8 °F 29.8 in Calm   4 mph 71 % 0 in
20:52 46.6 °F 37.8 °F 29.8 in Calm   4 mph 71 % 0 in
20:57 46.2 °F 37.8 °F 29.8 in Calm   2 mph 72 % 0 in
21:02 46 °F 37.9 °F 29.8 in Calm   2 mph 73 % 0 in
21:07 46 °F 38.5 °F 29.8 in Calm   1 mph 75 % 0 in
21:12 46 °F 38.3 °F 29.8 in Calm   1 mph 74 % 0 in
21:17 45.9 °F 38.3 °F 29.8 in Calm   2 mph 75 % 0 in
21:22 45.7 °F 38.5 °F 29.8 in Calm   2 mph 76 % 0 in
21:32 45.9 °F 39 °F 29.8 in Calm   1 mph 77 % 0 in
21:42 46 °F 38.8 °F 29.8 in Calm   1 mph 76 % 0 in
21:47 46 °F 39.2 °F 29.8 in Calm   1 mph 77 % 0 in
21:52 46 °F 39.2 °F 29.8 in SW 2 mph 2 mph 77 % 0 in
21:57 46.2 °F 39.4 °F 29.8 in South 1 mph 4 mph 77 % 0 in
22:07 46.2 °F 40.1 °F 29.8 in SSW 1 mph 4 mph 79 % 0 in
22:12 46 °F 40.3 °F 29.8 in ESE 1 mph 4 mph 80 % 0 in
22:17 45.9 °F 40.1 °F 29.8 in Calm   4 mph 80 % 0 in
22:22 45.9 °F 39.7 °F 29.8 in SE 1 mph 4 mph 79 % 0 in
22:32 46 °F 39.9 °F 29.8 in WSW 6 mph 6 mph 79 % 0 in
22:37 46.4 °F 39.9 °F 29.8 in SSE 4 mph 7 mph 78 % 0 in
22:42 46.6 °F 40.1 °F 29.8 in SSW 4 mph 7 mph 78 % 0 in
22:52 46.2 °F 40.5 °F 29.8 in SW 2 mph 7 mph 80 % 0 in
22:57 45.9 °F 40.3 °F 29.8 in SSW 2 mph 5 mph 81 % 0 in
23:02 45.5 °F 40.1 °F 29.8 in SSW 1 mph 5 mph 81 % 0 in
23:07 45.1 °F 39.9 °F 29.8 in SSW 2 mph 4 mph 82 % 0 in
23:12 44.8 °F 39.6 °F 29.8 in SSW 1 mph 4 mph 82 % 0 in
23:17 44.2 °F 39.4 °F 29.8 in Calm   4 mph 83 % 0 in
23:22 44.2 °F 39.7 °F 29.8 in SSW 3 mph 4 mph 84 % 0 in
23:32 44.4 °F 39.6 °F 29.8 in Calm   4 mph 83 % 0 in
23:42 43.7 °F 39.6 °F 29.8 in Calm   3 mph 85 % 0 in
23:47 43.5 °F 39.6 °F 29.8 in Calm   1 mph 86 % 0 in
23:52 43.7 °F 39.7 °F 29.8 in Calm   1 mph 86 % 0 in
23:57 43.7 °F 40.1 °F 29.8 in Calm   1 mph 87 % 0 in
Meteo18
Compliments of Weather Underground - 4 mb

Script developed by  Jim McMurry - jmcmurry@mwt.net Adapted for the template by  Wim van der Kuil - Leuven-Template.eu

You find our weather info also at:

European Weather Network

Weather Underground

Equipment we use:

Weather-station
Davis Vue

Weather-program
Meteohub

Weather-server
Raspberry PI 2 B+

Provider
1 and 1

Davis Vue

Meteohub

Raspberry PI 2 B+

1 and 1